Casper, WY

1:17 AM MST on December 29, 2014 (GMT -0700)
RAWS CASPER MOUNTAIN WY US | Change Station
CLOSE
Current Station
Personal Weather Station
Location: Casper, WY
Elevation: 7740 ft
Nearby Weather Stations
Active Advisory: Winter Weather Advisory

Elev 7740 ft 42.71 °N, 106.35 °W | Updated 1 hour ago

Snow
Snow
9 °F
Feels Like -10 °F
N
20
Wind Variable Wind from North
Gusts 32.0 mph

Today
High -- | Low -- °F
--% Chance of Precip.
Yesterday
High -- | Low -- °F
Precip. -- in
7:35 AM 4:39 PM
First Quarter, 56% visible
Pressure 30.20 in
Visibility 10.0 miles
Clouds Overcast 3500 ft
Windchill -10 °F
Dew Point 6 °F
Humidity 87%
Rainfall 0.00 in
Snow Depth Not available.
UV 0 out of 12
Pollen .10 out of 12
Air Quality Not available.
Flu Activity Not available.
METAR KCPR 290753Z AUTO 04012KT 10SM OVC035 M09/M12 A3005 RMK AO2 SLP226 T10941122

More Conditions Fewer Conditions

Pressure 30.20 in
Visibility 10.0 miles
Clouds Overcast 3500 ft
Windchill -10 °F
Dew Point 6 °F
Humidity 87%
Rainfall 0.00 in
Snow Depth Not available.
UV 0 out of 12
Pollen .10 out of 12
Air Quality Not available.
Flu Activity Not available.
METAR KCPR 290753Z AUTO 04012KT 10SM OVC035 M09/M12 A3005 RMK AO2 SLP226 T10941122

More Conditions Fewer Conditions

10-Day Weather Forecast

Almanac

Astronomy

Dec. 29, 2014 Rise Set
Actual Time
Civil Twilight
Nautical Twilight
Astronomical Twilight
Moon
Length of Visible Light
Length of Day
Tomorrow will be .
, % of the Moon is Illuminated

Today's Extremes

State Highs State Lows

Community

WunderPhotos

Upload Photos

1,781,553 photos uploaded!

WunderBlogs® & News

Nearby

Air Quality

  Air Quality AQ Index Pollutant
Not available.

Snow Depth

Station Depth Elevation

Earthquake Activity

City Distance Mag. Time & Date
Minimum magnitude displayed is 2.5.

Coastal Water Temperatures

Place Temperature

Nearby Weather Stations